• Join FlightAware (Why Join?)
  • Login
  • US Flag 
06:17AM EDT


 

Airport Tracker/Info


-or-


 

Live Flight TrackerFlight Track Log ✈ VH-LDK ✈ 18-Feb-2014 ✈ YBCG / OOL - YCAB

Flight Track Log - Related Links

Times and Time Zones

All times are in EST time to prevent confusion due to time zone crossing. See the VH-LDK flight status page for this flight to view local times or setup timezone preferences in your user account.

Time Position Orientation Groundspeed Altitude Reporting Facility
EST Latitude Longitude Course Direction KTS MPH feet Rate Location/Type
09:56PM -28.1718 153.5111 206° Southwest 78 90 400  Level Aus ATC (RADAR)
09:58PM -28.1911 153.5006 206° Southwest 86 99 1,200 540 Climbing Aus ATC (RADAR)
09:58PM -28.1895 153.4936 284° West 89 102 1,300 420 Climbing Aus ATC (RADAR)
09:59PM -28.1789 153.4779 307° West 95 109 1,600 480 Climbing Aus ATC (RADAR)
09:59PM -28.1633 153.4616 317° Northwest 98 113 2,000 420 Climbing Aus ATC (RADAR)
10:00PM -28.1467 153.4522 333° Northwest 111 128 2,200 360 Climbing Aus ATC (RADAR)
10:01PM -28.1253 153.4430 339° North 108 124 2,500 240 Climbing Aus ATC (RADAR)
10:01PM -28.1145 153.4401 347° North 114 131 2,500 60 Level Aus ATC (RADAR)
10:02PM -28.0951 153.4343 345° North 122 140 2,600  Climbing Aus ATC (RADAR)
10:03PM -28.0579 153.4240 346° North 125 144 2,500 -120 Descending Aus ATC (RADAR)
10:03PM -28.0406 153.4190 346° North 127 146 2,500 -120 Level Aus ATC (RADAR)
10:04PM -28.0199 153.4133 346° North 130 150 2,400 -120 Descending Aus ATC (RADAR)
10:05PM -27.9935 153.4071 348° North 128 147 2,400 60 Level Aus ATC (RADAR)
10:05PM -27.9703 153.4019 349° North 126 145 2,500  Climbing Aus ATC (RADAR)
10:06PM -27.9411 153.3939 346° North 128 147 2,400 60 Descending Aus ATC (RADAR)
10:07PM -27.9220 153.3858 340° North 124 143 2,600 120 Climbing Aus ATC (RADAR)
10:07PM -27.9167 153.3821 328° Northwest 125 144 2,500 -600 Descending Aus ATC (RADAR)
10:10PM -27.8502 153.3489 337° Northwest 2,500  Level Aus ATC (Calculated)
10:12PM -27.8182 153.3337 337° Northwest  Level Estimated
10:13PM -27.7939 153.3222 337° Northwest  Level Estimated
10:14PM -27.7696 153.3106 337° Northwest  Level Estimated
10:15PM -27.7453 153.2991 337° Northwest  Level Estimated
10:16PM -27.7211 153.2876 337° Northwest  Level Estimated
10:17PM -27.6968 153.2760 337° Northwest  Level Estimated
10:18PM -27.6725 153.2645 337° Northwest  Level Estimated
10:18PM -27.6172 153.2330 150° Southeast 2,500  Level Aus ATC (Calculated)
10:19PM -27.6482 153.2530 337° Northwest  Level Estimated
10:20PM -27.5892 153.2200 338° Northwest  Level Estimated
10:21PM -27.5648 153.2087 338° Northwest  Level Estimated
10:22PM -27.5404 153.1974 338° Northwest  Level Estimated
10:23PM -27.5161 153.1862 338° Northwest  Level Estimated
10:24PM -27.4917 153.1749 338° Northwest  Level Estimated
10:25PM -27.4673 153.1637 338° Northwest  Level Estimated
10:25PM -27.4424 153.1464 96° East 2,500  Level Aus ATC (Calculated)
10:26PM -27.4429 153.1524 338° Northwest  Level Estimated
10:26PM -27.4133 153.1320 North 2,500  Level Aus ATC (Calculated)
10:27PM -27.4110 153.1324 338° Northwest  Level Estimated
10:27PM -27.4133 153.1320 339° North  Level Aus ATC (Calculated)
10:28PM -27.3728 153.1141 339° North  Level Estimated
10:29PM -27.3761 153.1156 339° North  Level Estimated
10:29PM -27.3292 153.0956 160° South  Level Aus ATC (Calculated)
10:30PM -27.3515 153.1047 339° North  Level Estimated
10:30PM -27.3292 153.0956 339° North  Level Aus ATC (Calculated)
10:32PM -27.2871 153.0770 338° Northwest  Level Estimated
10:33PM -27.2626 153.0661 338° Northwest  Level Estimated
10:34PM -27.2381 153.0552 339° North  Level Estimated
10:34PM -27.2031 153.0412 165° South  Level Aus ATC (Calculated)
10:35PM -27.2136 153.0444 339° North  Level Estimated
10:36PM -27.1665 153.0245 338° Northwest  Level Estimated
10:37PM -27.1420 153.0134 338° Northwest  Level Estimated
10:38PM -27.1176 153.0024 338° Northwest  Level Estimated
10:39PM -27.0932 152.9913 338° Northwest  Level Estimated
10:40PM -27.0768 152.9839 338° Northwest  Level Estimated
10:41PM -27.0768 152.9839 North  Level Estimated
10:42PM -27.0768 152.9839 North  Level Estimated
10:43PM -27.0768 152.9839 North  Level Estimated
10:44PM -27.0768 152.9839 North  Level Estimated
10:45PM -27.0768 152.9839 North  Level Estimated